Stegall, Nebraska
Current Conditions -  °F | °C
As of 10:53 PM on Tuesday 25 Nov 2014 (Local Time) from KTOR Reporting Station
Overcast Overcast  
Wind Chill: 17°   Ceiling: 9500
Heat Index: 30°   Visibility: 10mi
Dew Point: 23°   Wind: 22mph
Humidity: 75%   Direction: 320°NW
Pressure: 30.07"   Gusts: 32mph
Location:  41.9727°N, 103.904°W
Report Text: KTOR 260553Z AUTO 32019G28KT 10SM OVC095 M01/M05 A3007 RMK AO2 PK WND 31028/0549 SLP198 60002 T10111050 10011 21011 51021
Loading
Personal Weather Stations






























Interactive Weather Map New forecast layout! Learn more

10-Day Weather Forecast

Advertisements
Track Severe Weather on mobile